createdAt,value
2023-05-05T00:00:11.752Z,18.09
2023-05-05T00:01:11.834Z,18.08
2023-05-05T00:02:11.726Z,18.07
2023-05-05T00:03:12.675Z,18.06
2023-05-05T00:04:11.837Z,18.05
2023-05-05T00:05:11.710Z,18.05
2023-05-05T00:06:11.674Z,18.04
2023-05-05T00:07:11.697Z,18.03
2023-05-05T00:08:11.644Z,18.02
2023-05-05T00:09:12.623Z,18.01
2023-05-05T00:10:11.619Z,17.99
2023-05-05T00:11:11.673Z,17.98
2023-05-05T00:12:11.742Z,17.97
2023-05-05T00:13:11.737Z,17.95
2023-05-05T00:14:12.612Z,17.94
2023-05-05T00:15:11.827Z,17.94
2023-05-05T00:16:11.610Z,17.93
2023-05-05T00:17:11.629Z,17.92
2023-05-05T00:18:11.620Z,17.91
2023-05-05T00:19:11.562Z,17.90
2023-05-05T00:20:12.474Z,17.88
2023-05-05T00:21:11.698Z,17.87
2023-05-05T00:22:11.497Z,17.86
2023-05-05T00:23:11.509Z,17.85
2023-05-05T00:24:11.468Z,17.84
2023-05-05T00:25:11.485Z,17.83
2023-05-05T00:26:12.360Z,17.82
2023-05-05T00:27:11.504Z,17.81
2023-05-05T00:28:11.410Z,17.79
2023-05-05T00:29:11.407Z,17.78
2023-05-05T00:30:11.335Z,17.77
2023-05-05T00:31:11.455Z,17.76
2023-05-05T00:32:12.332Z,17.75
2023-05-05T00:33:11.370Z,17.74
2023-05-05T00:34:12.045Z,17.72
2023-05-05T00:35:11.268Z,17.71
2023-05-05T00:36:11.307Z,17.70
2023-05-05T00:37:12.297Z,17.69
2023-05-05T00:38:11.275Z,17.68
2023-05-05T00:39:11.364Z,17.67
2023-05-05T00:40:11.238Z,17.67
2023-05-05T00:41:11.251Z,17.66
2023-05-05T00:42:12.249Z,17.65
2023-05-05T00:43:11.249Z,17.64
2023-05-05T00:44:11.202Z,17.64
2023-05-05T00:45:11.147Z,17.63
2023-05-05T00:46:11.189Z,17.62
2023-05-05T00:47:12.109Z,17.61
2023-05-05T00:48:11.250Z,17.60
2023-05-05T00:49:11.204Z,17.59
2023-05-05T00:50:11.103Z,17.58
2023-05-05T00:51:11.141Z,17.57
2023-05-05T00:52:12.076Z,17.55
2023-05-05T00:53:11.097Z,17.54
2023-05-05T00:54:11.111Z,17.53
2023-05-05T00:55:11.788Z,17.52
2023-05-05T00:56:11.070Z,17.51
2023-05-05T00:57:12.755Z,17.50
2023-05-05T00:58:11.171Z,17.49
2023-05-05T00:59:10.993Z,17.48
2023-05-05T01:00:11.026Z,17.47
2023-05-05T01:01:11.175Z,17.47
2023-05-05T01:02:10.940Z,17.46
2023-05-05T01:03:12.034Z,17.45
2023-05-05T01:04:11.101Z,17.44
2023-05-05T01:05:10.984Z,17.43
2023-05-05T01:06:10.899Z,17.42
2023-05-05T01:07:10.884Z,17.41
2023-05-05T01:08:10.988Z,17.40
2023-05-05T01:09:11.876Z,17.39
2023-05-05T01:10:19.800Z,17.38
2023-05-05T01:11:12.426Z,17.37
2023-05-05T01:12:10.825Z,17.37
2023-05-05T01:13:10.850Z,17.36
2023-05-05T01:14:17.195Z,17.35
2023-05-05T01:15:10.768Z,17.34
2023-05-05T01:16:11.003Z,17.33
2023-05-05T01:17:10.760Z,17.33
2023-05-05T01:18:10.790Z,17.32
2023-05-05T01:19:10.721Z,17.32
2023-05-05T01:20:11.707Z,17.31
2023-05-05T01:21:10.722Z,17.31
2023-05-05T01:22:10.680Z,17.30
2023-05-05T01:23:10.688Z,17.30
2023-05-05T01:24:10.714Z,17.29
2023-05-05T01:25:11.603Z,17.28
2023-05-05T01:26:10.731Z,17.27
2023-05-05T01:27:10.668Z,17.27
2023-05-05T01:28:10.625Z,17.26
2023-05-05T01:29:10.651Z,17.25
2023-05-05T01:30:10.710Z,17.24
2023-05-05T01:31:11.583Z,17.23
2023-05-05T01:32:10.564Z,17.22
2023-05-05T01:33:10.584Z,17.22
2023-05-05T01:34:10.599Z,17.21
2023-05-05T01:35:10.626Z,17.20
2023-05-05T01:36:11.451Z,17.20
2023-05-05T01:37:10.639Z,17.19
2023-05-05T01:38:10.522Z,17.18
2023-05-05T01:39:10.572Z,17.18
2023-05-05T01:40:10.495Z,17.17
2023-05-05T01:41:10.629Z,17.16
2023-05-05T01:42:11.517Z,17.15
2023-05-05T01:43:10.476Z,17.14
2023-05-05T01:44:10.425Z,17.13
2023-05-05T01:45:10.431Z,17.12
2023-05-05T01:46:10.413Z,17.11
2023-05-05T01:47:11.429Z,17.10
2023-05-05T01:48:10.360Z,17.09
2023-05-05T01:49:10.374Z,17.08
2023-05-05T01:50:10.538Z,17.07
2023-05-05T01:51:10.438Z,17.06
2023-05-05T01:52:11.379Z,17.05
2023-05-05T01:53:10.770Z,17.05
2023-05-05T01:54:10.479Z,17.04
2023-05-05T01:55:10.355Z,17.03
2023-05-05T01:56:10.588Z,17.02
2023-05-05T01:57:10.343Z,17.01
2023-05-05T01:58:11.214Z,17.00
2023-05-05T01:59:10.469Z,16.99
2023-05-05T02:00:10.428Z,16.98
2023-05-05T02:01:10.320Z,16.97
2023-05-05T02:02:10.237Z,16.97
2023-05-05T02:03:10.389Z,16.96
2023-05-05T02:04:11.096Z,16.95
2023-05-05T02:05:10.383Z,16.94
2023-05-05T02:06:10.231Z,16.94
2023-05-05T02:07:10.181Z,16.93
2023-05-05T02:08:10.246Z,16.92
2023-05-05T02:09:10.349Z,16.91
2023-05-05T02:10:11.029Z,16.90
2023-05-05T02:11:10.118Z,16.89
2023-05-05T02:12:10.172Z,16.88
2023-05-05T02:13:10.192Z,16.87
2023-05-05T02:14:10.086Z,16.85
2023-05-05T02:15:10.039Z,16.84
2023-05-05T02:16:11.034Z,16.83
2023-05-05T02:17:10.051Z,16.82
2023-05-05T02:18:10.131Z,16.81
2023-05-05T02:19:10.149Z,16.80
2023-05-05T02:20:10.096Z,16.79
2023-05-05T02:21:10.911Z,16.78
2023-05-05T02:22:09.983Z,16.76
2023-05-05T02:23:10.056Z,16.75
2023-05-05T02:24:10.049Z,16.74
2023-05-05T02:25:09.935Z,16.73
2023-05-05T02:26:09.914Z,16.72
2023-05-05T02:27:10.809Z,16.71
2023-05-05T02:29:07.433Z,17.72
2023-05-05T02:30:07.630Z,17.24
2023-05-05T02:31:07.477Z,16.90
2023-05-05T02:32:07.319Z,16.68
2023-05-05T02:33:07.289Z,16.55
2023-05-05T02:34:07.286Z,16.48
2023-05-05T02:35:07.283Z,16.44
2023-05-05T02:36:07.275Z,16.43
2023-05-05T02:37:07.248Z,16.43
2023-05-05T02:38:13.472Z,16.43
2023-05-05T02:39:07.269Z,16.44
2023-05-05T02:40:08.393Z,16.44
2023-05-05T02:41:07.270Z,16.45
2023-05-05T02:42:07.231Z,16.45
2023-05-05T02:43:07.218Z,16.45
2023-05-05T02:44:08.152Z,16.45
2023-05-05T02:45:07.182Z,16.45
2023-05-05T02:46:07.254Z,16.45
2023-05-05T02:47:07.109Z,16.45
2023-05-05T02:48:07.212Z,16.44
2023-05-05T02:49:08.041Z,16.43
2023-05-05T02:50:07.261Z,16.43
2023-05-05T02:51:07.062Z,16.42
2023-05-05T02:52:07.068Z,16.41
2023-05-05T02:53:07.077Z,16.41
2023-05-05T02:54:08.061Z,16.40
2023-05-05T02:55:07.048Z,16.40
2023-05-05T02:56:07.049Z,16.39
2023-05-05T02:57:07.000Z,16.39
2023-05-05T02:58:06.978Z,16.39
2023-05-05T02:59:06.986Z,16.38
2023-05-05T03:00:08.081Z,16.38
2023-05-05T03:01:06.974Z,16.38
2023-05-05T03:02:06.929Z,16.37
2023-05-05T03:03:07.085Z,16.37
2023-05-05T03:04:06.890Z,16.37
2023-05-05T03:05:07.822Z,16.37
2023-05-05T03:06:06.906Z,16.36
2023-05-05T03:07:06.909Z,16.36
2023-05-05T03:08:06.929Z,16.35
2023-05-05T03:09:06.874Z,16.34
2023-05-05T03:10:08.126Z,16.34
2023-05-05T03:11:06.870Z,16.33
2023-05-05T03:12:06.930Z,16.33
2023-05-05T03:13:06.892Z,16.32
2023-05-05T03:14:06.773Z,16.32
2023-05-05T03:15:07.693Z,16.32
2023-05-05T03:16:06.913Z,16.32
2023-05-05T03:17:06.769Z,16.32
2023-05-05T03:18:06.746Z,16.32
2023-05-05T03:19:07.007Z,16.32
2023-05-05T03:20:07.812Z,16.31
2023-05-05T03:21:06.696Z,16.31
2023-05-05T03:22:06.683Z,16.30
2023-05-05T03:23:07.353Z,16.29
2023-05-05T03:24:06.648Z,16.29
2023-05-05T03:25:07.583Z,16.28
2023-05-05T03:26:06.691Z,16.27
2023-05-05T03:27:06.663Z,16.27
2023-05-05T03:28:06.605Z,16.26
2023-05-05T03:29:06.584Z,16.26
2023-05-05T03:30:06.965Z,16.25
2023-05-05T03:31:07.515Z,16.25
2023-05-05T03:32:06.603Z,16.24
2023-05-05T03:33:06.586Z,16.24
2023-05-05T03:34:06.584Z,16.24
2023-05-05T03:35:06.507Z,16.24
2023-05-05T03:36:07.549Z,16.23
2023-05-05T03:37:07.420Z,16.23
2023-05-05T03:38:06.488Z,16.23
2023-05-05T03:39:06.516Z,16.22
2023-05-05T03:40:06.650Z,16.22
2023-05-05T03:41:06.464Z,16.22
2023-05-05T03:42:07.422Z,16.22
2023-05-05T03:43:06.407Z,16.22
2023-05-05T03:44:06.529Z,16.21
2023-05-05T03:45:06.393Z,16.21
2023-05-05T03:46:06.418Z,16.21
2023-05-05T03:47:07.319Z,16.21
2023-05-05T03:48:06.357Z,16.21
2023-05-05T03:49:06.343Z,16.21
2023-05-05T03:50:06.431Z,16.21
2023-05-05T03:51:06.312Z,16.21
2023-05-05T03:52:06.328Z,16.21
2023-05-05T03:53:07.227Z,16.20
2023-05-05T03:54:06.379Z,16.20
2023-05-05T03:55:06.266Z,16.20
2023-05-05T03:56:06.246Z,16.20
2023-05-05T03:57:06.247Z,16.20
2023-05-05T03:58:06.253Z,16.20
2023-05-05T03:59:07.150Z,16.20
2023-05-05T04:00:06.332Z,16.20
2023-05-05T04:01:06.206Z,16.20
2023-05-05T04:02:06.239Z,16.19
2023-05-05T04:03:06.252Z,16.19
2023-05-05T04:04:07.169Z,16.19
2023-05-05T04:05:06.133Z,16.19
2023-05-05T04:06:06.150Z,16.19
2023-05-05T04:07:06.144Z,16.19
2023-05-05T04:08:06.106Z,16.18
2023-05-05T04:09:07.064Z,16.18
2023-05-05T04:10:06.227Z,16.18
2023-05-05T04:11:06.086Z,16.18
2023-05-05T04:12:06.059Z,16.18
2023-05-05T04:13:06.078Z,16.18
2023-05-05T04:14:05.991Z,16.18
2023-05-05T04:15:06.916Z,16.18
2023-05-05T04:16:06.039Z,16.18
2023-05-05T04:17:06.014Z,16.18
2023-05-05T04:18:06.031Z,16.18
2023-05-05T04:19:05.944Z,16.18
2023-05-05T04:20:07.211Z,16.19
2023-05-05T04:21:05.946Z,16.19
2023-05-05T04:22:05.964Z,16.20
2023-05-05T04:23:05.926Z,16.20
2023-05-05T04:24:05.909Z,16.20
2023-05-05T04:25:06.807Z,16.20
2023-05-05T04:26:05.900Z,16.21
2023-05-05T04:27:05.862Z,16.21
2023-05-05T04:28:05.842Z,16.21
2023-05-05T04:29:05.859Z,16.21
2023-05-05T04:30:05.931Z,16.21
2023-05-05T04:31:06.790Z,16.21
2023-05-05T04:32:05.836Z,16.22
2023-05-05T04:33:05.755Z,16.22
2023-05-05T04:34:05.771Z,16.22
2023-05-05T04:35:05.834Z,16.22
2023-05-05T04:36:05.716Z,16.21
2023-05-05T04:37:06.668Z,16.21
2023-05-05T04:38:06.677Z,16.21
2023-05-05T04:39:05.713Z,16.21
2023-05-05T04:40:05.759Z,16.20
2023-05-05T04:41:05.672Z,16.20
2023-05-05T04:42:06.680Z,16.20
2023-05-05T04:43:05.677Z,16.20
2023-05-05T04:44:05.629Z,16.20
2023-05-05T04:45:05.635Z,16.19
2023-05-05T04:46:05.622Z,16.19
2023-05-05T04:47:06.550Z,16.19
2023-05-05T04:48:05.636Z,16.19
2023-05-05T04:49:05.567Z,16.18
2023-05-05T04:50:06.767Z,16.18
2023-05-05T04:51:05.537Z,16.17
2023-05-05T04:52:06.456Z,16.16
2023-05-05T04:53:05.571Z,16.16
2023-05-05T04:54:05.498Z,16.16
2023-05-05T04:55:05.504Z,16.16
2023-05-05T04:56:05.505Z,16.16
2023-05-05T04:57:05.472Z,16.16
2023-05-05T04:58:06.394Z,16.16
2023-05-05T04:59:05.444Z,16.17
2023-05-05T05:00:05.678Z,16.17
2023-05-05T05:01:05.391Z,16.18
2023-05-05T05:02:05.481Z,16.19
2023-05-05T05:03:06.379Z,16.20
2023-05-05T05:04:05.428Z,16.20
2023-05-05T05:05:05.395Z,16.21
2023-05-05T05:06:05.378Z,16.21
2023-05-05T05:07:05.419Z,16.22
2023-05-05T05:08:06.256Z,16.22
2023-05-05T05:09:05.332Z,16.23
2023-05-05T05:10:05.446Z,16.23
2023-05-05T05:11:05.329Z,16.24
2023-05-05T05:12:05.308Z,16.24
2023-05-05T05:13:12.966Z,16.25
2023-05-05T05:14:06.201Z,16.26
2023-05-05T05:15:05.356Z,16.27
2023-05-05T05:16:05.322Z,16.27
2023-05-05T05:17:05.312Z,16.27
2023-05-05T05:18:05.264Z,16.28
2023-05-05T05:19:06.124Z,16.28
2023-05-05T05:20:05.218Z,16.28
2023-05-05T05:21:05.163Z,16.28
2023-05-05T05:22:05.182Z,16.28
2023-05-05T05:23:05.170Z,16.28
2023-05-05T05:24:06.088Z,16.29
2023-05-05T05:25:05.208Z,16.29
2023-05-05T05:26:05.133Z,16.30
2023-05-05T05:27:05.820Z,16.30
2023-05-05T05:28:09.683Z,16.30
2023-05-05T05:29:07.581Z,16.31
2023-05-05T05:30:05.078Z,16.31
2023-05-05T05:31:05.025Z,16.31
2023-05-05T05:32:05.173Z,16.32
2023-05-05T05:33:05.111Z,16.32
2023-05-05T05:34:05.946Z,16.32
2023-05-05T05:35:05.069Z,16.32
2023-05-05T05:36:04.957Z,16.32
2023-05-05T05:37:04.984Z,16.33
2023-05-05T05:38:04.947Z,16.33
2023-05-05T05:39:05.874Z,16.33
2023-05-05T05:40:06.109Z,16.34
2023-05-05T05:41:04.947Z,16.34
2023-05-05T05:42:04.894Z,16.35
2023-05-05T05:43:05.061Z,16.36
2023-05-05T05:44:05.817Z,16.36
2023-05-05T05:45:04.910Z,16.37
2023-05-05T05:46:07.610Z,16.38
2023-05-05T05:47:04.855Z,16.39
2023-05-05T05:48:04.873Z,16.40
2023-05-05T05:49:04.776Z,16.42
2023-05-05T05:50:06.986Z,16.44
2023-05-05T05:51:04.830Z,16.46
2023-05-05T05:52:04.808Z,16.48
2023-05-05T05:53:04.761Z,16.50
2023-05-05T05:54:04.916Z,16.52
2023-05-05T05:55:05.706Z,16.54
2023-05-05T05:56:04.724Z,16.57
2023-05-05T05:57:04.749Z,16.59
2023-05-05T05:58:05.668Z,16.62
2023-05-05T05:59:04.707Z,16.65
2023-05-05T06:00:04.730Z,16.69
2023-05-05T06:01:05.626Z,16.72
2023-05-05T06:02:04.721Z,16.76
2023-05-05T06:03:04.741Z,16.79
2023-05-05T06:04:04.639Z,16.82
2023-05-05T06:05:04.617Z,16.85
2023-05-05T06:06:04.618Z,16.88
2023-05-05T06:07:05.499Z,16.90
2023-05-05T06:08:04.557Z,16.91
2023-05-05T06:09:04.562Z,16.93
2023-05-05T06:10:15.000Z,16.94
2023-05-05T06:11:06.026Z,16.95
2023-05-05T06:12:04.534Z,16.97
2023-05-05T06:13:05.773Z,16.99
2023-05-05T06:14:04.486Z,17.03
2023-05-05T06:15:05.443Z,17.07
2023-05-05T06:16:04.470Z,17.12
2023-05-05T06:17:04.451Z,17.18
2023-05-05T06:18:05.434Z,17.24
2023-05-05T06:19:04.444Z,17.30
2023-05-05T06:20:04.391Z,17.37
2023-05-05T06:21:04.429Z,17.44
2023-05-05T06:22:04.393Z,17.51
2023-05-05T06:23:05.280Z,17.59
2023-05-05T06:24:04.336Z,17.66
2023-05-05T06:25:05.308Z,17.73
2023-05-05T06:26:04.404Z,17.79
2023-05-05T06:27:04.354Z,17.84
2023-05-05T06:28:05.246Z,17.88
2023-05-05T06:29:04.770Z,17.92
2023-05-05T06:30:05.229Z,17.96
2023-05-05T06:31:04.291Z,18.01
2023-05-05T06:32:04.312Z,18.04
2023-05-05T06:33:04.281Z,18.08
2023-05-05T06:34:05.172Z,18.11
2023-05-05T06:35:04.862Z,18.14
2023-05-05T06:36:04.227Z,18.17
2023-05-05T06:37:04.192Z,18.19
2023-05-05T06:38:04.244Z,18.21
2023-05-05T06:39:04.167Z,18.23
2023-05-05T06:40:05.166Z,18.26
2023-05-05T06:41:05.209Z,18.30
2023-05-05T06:42:04.224Z,18.33
2023-05-05T06:43:04.207Z,18.37
2023-05-05T06:44:05.194Z,18.42
2023-05-05T06:45:04.179Z,18.48
2023-05-05T06:46:05.030Z,18.54
2023-05-05T06:47:05.425Z,18.60
2023-05-05T06:48:05.109Z,18.67
2023-05-05T06:49:04.094Z,18.75
2023-05-05T06:50:05.111Z,18.82
2023-05-05T06:51:05.019Z,18.89
2023-05-05T06:52:05.048Z,18.95
2023-05-05T06:53:05.047Z,19.02
2023-05-05T06:54:04.004Z,19.08
2023-05-05T06:55:04.031Z,19.13
2023-05-05T06:56:04.207Z,19.17
2023-05-05T06:57:04.011Z,19.19
2023-05-05T06:58:04.880Z,19.21
2023-05-05T06:59:03.916Z,19.23
2023-05-05T07:00:03.917Z,19.23
2023-05-05T07:01:03.937Z,19.22
2023-05-05T07:02:03.931Z,19.21
2023-05-05T07:03:03.961Z,19.21
2023-05-05T07:04:05.798Z,19.21
2023-05-05T07:05:05.045Z,19.21
2023-05-05T07:06:04.800Z,19.21
2023-05-05T07:07:03.863Z,19.21
2023-05-05T07:08:04.769Z,19.21
2023-05-05T07:09:03.848Z,19.20
2023-05-05T07:10:04.697Z,19.20
2023-05-05T07:11:03.827Z,19.20
2023-05-05T07:12:03.797Z,19.19
2023-05-05T07:13:03.781Z,19.19
2023-05-05T07:14:03.765Z,19.18
2023-05-05T07:15:15.377Z,19.19
2023-05-05T07:16:05.337Z,19.19
2023-05-05T07:17:03.691Z,19.20
2023-05-05T07:18:03.733Z,19.21
2023-05-05T07:19:03.672Z,19.22
2023-05-05T07:20:04.608Z,19.25
2023-05-05T07:21:03.647Z,19.28
2023-05-05T07:22:03.636Z,19.31
2023-05-05T07:23:03.680Z,19.34
2023-05-05T07:24:03.605Z,19.39
2023-05-05T07:25:03.610Z,19.43
2023-05-05T07:26:04.562Z,19.46
2023-05-05T07:27:03.593Z,19.50
2023-05-05T07:28:03.597Z,19.54
2023-05-05T07:29:03.535Z,19.59
2023-05-05T07:30:07.901Z,19.64
2023-05-05T07:31:05.963Z,19.68
2023-05-05T07:32:03.615Z,19.73
2023-05-05T07:33:03.551Z,19.78
2023-05-05T07:34:03.490Z,19.82
2023-05-05T07:35:03.443Z,19.86
2023-05-05T07:36:04.421Z,19.90
2023-05-05T07:37:04.440Z,19.95
2023-05-05T07:38:03.407Z,20.00
2023-05-05T07:39:03.520Z,20.05
2023-05-05T07:40:03.377Z,20.10
2023-05-05T07:41:03.420Z,20.15
2023-05-05T07:42:04.317Z,20.21
2023-05-05T07:43:03.342Z,20.26
2023-05-05T07:44:03.334Z,20.32
2023-05-05T07:45:03.370Z,20.37
2023-05-05T07:46:03.427Z,20.42
2023-05-05T07:47:04.205Z,20.48
2023-05-05T07:48:03.304Z,20.53
2023-05-05T07:49:03.278Z,20.58
2023-05-05T07:50:03.270Z,20.63
2023-05-05T07:51:03.240Z,20.68
2023-05-05T07:52:03.339Z,20.73
2023-05-05T07:53:13.690Z,20.78
2023-05-05T07:54:04.799Z,20.83
2023-05-05T07:55:03.226Z,20.89
2023-05-05T07:56:04.174Z,20.94
2023-05-05T07:57:04.153Z,21.00
2023-05-05T07:58:04.134Z,21.06
2023-05-05T07:59:04.134Z,21.12
2023-05-05T08:00:03.175Z,21.17
2023-05-05T08:01:04.237Z,21.23
2023-05-05T08:02:03.088Z,21.28
2023-05-05T08:03:03.260Z,21.33
2023-05-05T08:04:03.181Z,21.39
2023-05-05T08:05:04.030Z,21.45
2023-05-05T08:06:03.061Z,21.51
2023-05-05T08:07:03.045Z,21.56
2023-05-05T08:08:03.081Z,21.62
2023-05-05T08:09:03.002Z,21.69
2023-05-05T08:10:03.026Z,21.75
2023-05-05T08:11:03.923Z,21.81
2023-05-05T08:12:04.005Z,21.87
2023-05-05T08:13:03.028Z,21.93
2023-05-05T08:14:02.992Z,22.00
2023-05-05T08:15:02.997Z,22.06
2023-05-05T08:16:03.956Z,22.12
2023-05-05T08:17:02.985Z,22.19
2023-05-05T08:18:02.991Z,22.25
2023-05-05T08:19:02.976Z,22.31
2023-05-05T08:20:02.950Z,22.37
2023-05-05T08:21:03.810Z,22.43
2023-05-05T08:22:02.920Z,22.48
2023-05-05T08:23:02.893Z,22.54
2023-05-05T08:24:02.815Z,22.59
2023-05-05T08:25:02.868Z,22.65
2023-05-05T08:26:04.019Z,22.72
2023-05-05T08:27:02.784Z,22.79
2023-05-05T08:29:00.290Z,24.11
2023-05-05T08:30:00.268Z,23.67
2023-05-05T08:31:01.203Z,23.39
2023-05-05T08:32:00.361Z,23.25
2023-05-05T08:33:00.322Z,23.20
2023-05-05T08:34:00.210Z,23.21
2023-05-05T08:35:00.188Z,23.26
2023-05-05T08:36:00.161Z,23.31
2023-05-05T08:37:01.142Z,23.38
2023-05-05T08:38:00.164Z,23.44
2023-05-05T08:39:00.393Z,23.49
2023-05-05T08:40:00.375Z,23.55
2023-05-05T08:41:00.164Z,23.59
2023-05-05T08:42:01.041Z,23.64
2023-05-05T08:43:00.145Z,23.70
2023-05-05T08:44:00.103Z,23.77
2023-05-05T08:45:00.155Z,23.86
2023-05-05T08:46:00.037Z,23.95
2023-05-05T08:47:01.075Z,24.04
2023-05-05T08:48:00.090Z,24.15
2023-05-05T08:49:00.019Z,24.24
2023-05-05T08:50:00.055Z,24.34
2023-05-05T08:51:01.926Z,24.42
2023-05-05T08:52:00.210Z,24.49
2023-05-05T08:53:00.031Z,24.55
2023-05-05T08:53:59.942Z,24.61
2023-05-05T08:55:00.012Z,24.67
2023-05-05T08:55:59.916Z,24.73
2023-05-05T08:56:59.932Z,24.80
2023-05-05T08:58:00.956Z,24.86
2023-05-05T08:58:59.964Z,24.92
2023-05-05T08:59:59.921Z,24.99
2023-05-05T09:00:59.913Z,25.06
2023-05-05T09:01:59.898Z,25.14
2023-05-05T09:03:00.022Z,25.23
2023-05-05T09:04:00.773Z,25.33
2023-05-05T09:04:59.853Z,25.44
2023-05-05T09:05:59.839Z,25.55
2023-05-05T09:06:59.843Z,25.66
2023-05-05T09:07:59.774Z,25.77
2023-05-05T09:08:59.852Z,25.88
2023-05-05T09:10:00.719Z,25.98
2023-05-05T09:10:59.789Z,26.09
2023-05-05T09:12:00.460Z,26.19
2023-05-05T09:12:59.762Z,26.30
2023-05-05T09:13:59.672Z,26.41
2023-05-05T09:14:59.746Z,26.52
2023-05-05T09:16:00.636Z,26.61
2023-05-05T09:16:59.680Z,26.67
2023-05-05T09:17:59.657Z,26.71
2023-05-05T09:18:59.662Z,26.73
2023-05-05T09:19:59.609Z,26.74
2023-05-05T09:21:00.540Z,26.75
2023-05-05T09:21:59.590Z,26.76
2023-05-05T09:22:59.594Z,26.78
2023-05-05T09:24:07.298Z,26.80
2023-05-05T09:25:01.254Z,26.84
2023-05-05T09:26:00.497Z,26.89
2023-05-05T09:26:59.520Z,26.94
2023-05-05T09:27:59.533Z,27.00
2023-05-05T09:28:59.499Z,27.05
2023-05-05T09:29:59.506Z,27.08
2023-05-05T09:31:00.401Z,27.11
2023-05-05T09:31:59.493Z,27.17
2023-05-05T09:32:59.575Z,27.27
2023-05-05T09:33:59.468Z,27.37
2023-05-05T09:34:59.436Z,27.47
2023-05-05T09:35:59.429Z,27.59
2023-05-05T09:37:00.369Z,27.72
2023-05-05T09:37:59.405Z,27.85
2023-05-05T09:38:59.370Z,27.96
2023-05-05T09:39:59.424Z,28.02
2023-05-05T09:40:59.336Z,28.07
2023-05-05T09:41:59.371Z,28.18
2023-05-05T09:43:00.276Z,28.34
2023-05-05T09:43:59.288Z,28.51
2023-05-05T09:45:00.008Z,28.67
2023-05-05T09:45:59.294Z,28.79
2023-05-05T09:46:59.274Z,28.90
2023-05-05T09:48:00.906Z,29.00
2023-05-05T09:48:59.250Z,29.11
2023-05-05T09:49:59.245Z,29.22
2023-05-05T09:50:59.213Z,29.35
2023-05-05T09:51:59.192Z,29.50
2023-05-05T09:53:00.145Z,29.67
2023-05-05T09:53:59.179Z,29.86
2023-05-05T09:54:59.214Z,30.06
2023-05-05T09:55:59.160Z,30.23
2023-05-05T09:56:59.178Z,30.44
2023-05-05T09:58:00.123Z,30.71
2023-05-05T09:58:59.234Z,31.04
2023-05-05T09:59:59.078Z,31.36
2023-05-05T10:00:59.133Z,31.60
2023-05-05T10:01:59.175Z,31.75
2023-05-05T10:03:00.075Z,31.85
2023-05-05T10:03:59.090Z,31.97
2023-05-05T10:05:00.340Z,32.11
2023-05-05T10:05:59.029Z,32.23
2023-05-05T10:06:59.038Z,32.35
2023-05-05T10:07:59.934Z,32.45
2023-05-05T10:08:58.973Z,32.53
2023-05-05T10:09:58.983Z,32.61
2023-05-05T10:10:58.948Z,32.68
2023-05-05T10:11:59.049Z,32.74
2023-05-05T10:12:59.960Z,32.77
2023-05-05T10:13:58.963Z,32.71
2023-05-05T10:14:58.971Z,32.60
2023-05-05T10:15:58.957Z,32.45
2023-05-05T10:16:58.906Z,32.29
2023-05-05T10:18:07.624Z,32.14
2023-05-05T10:19:00.382Z,32.03
2023-05-05T10:19:58.863Z,32.01
2023-05-05T10:20:58.847Z,32.02
2023-05-05T10:21:58.856Z,32.06
2023-05-05T10:22:58.815Z,32.12
2023-05-05T10:23:59.792Z,32.22
2023-05-05T10:24:58.778Z,32.32
2023-05-05T10:25:58.745Z,32.44
2023-05-05T10:26:58.786Z,32.57
2023-05-05T10:27:58.769Z,32.69
2023-05-05T10:28:59.690Z,32.81
2023-05-05T10:29:58.843Z,32.97
2023-05-05T10:30:58.740Z,33.18
2023-05-05T10:31:58.800Z,33.44
2023-05-05T10:33:17.377Z,33.73
2023-05-05T10:34:00.729Z,34.04
2023-05-05T10:34:58.650Z,34.36
2023-05-05T10:35:58.677Z,34.71
2023-05-05T10:36:58.788Z,35.10
2023-05-05T10:37:58.662Z,35.54
2023-05-05T10:38:58.596Z,36.06
2023-05-05T10:39:59.526Z,36.75
2023-05-05T10:40:58.558Z,37.75
2023-05-05T10:41:58.586Z,39.10
2023-05-05T10:42:58.573Z,40.71
2023-05-05T10:43:58.563Z,42.46
2023-05-05T10:44:59.457Z,44.22
2023-05-05T10:45:58.537Z,45.79
2023-05-05T10:46:58.594Z,47.13
2023-05-05T10:47:58.584Z,48.36
2023-05-05T10:48:58.559Z,49.56
2023-05-05T10:49:59.426Z,50.73
2023-05-05T10:50:58.519Z,51.85
2023-05-05T10:51:58.478Z,52.92
2023-05-05T10:52:58.496Z,53.95
2023-05-05T10:53:58.441Z,54.94
2023-05-05T10:54:59.370Z,55.85
2023-05-05T10:55:58.472Z,56.66
2023-05-05T10:56:58.432Z,57.40
2023-05-05T10:57:58.434Z,58.02
2023-05-05T10:59:00.461Z,58.51
2023-05-05T10:59:58.414Z,58.95
2023-05-05T11:00:59.312Z,59.37
2023-05-05T11:01:58.322Z,59.73
2023-05-05T11:02:58.915Z,60.04
2023-05-05T11:03:58.381Z,60.36
2023-05-05T11:04:58.309Z,60.75
2023-05-05T11:05:59.236Z,61.24
2023-05-05T11:06:58.290Z,61.79
2023-05-05T11:07:58.293Z,62.35
2023-05-05T11:08:58.269Z,62.79
2023-05-05T11:09:58.323Z,63.04
2023-05-05T11:10:58.330Z,63.28
2023-05-05T11:11:59.171Z,63.52
2023-05-05T11:12:58.239Z,63.13
2023-05-05T11:13:58.220Z,62.22
2023-05-05T11:14:58.188Z,61.47
2023-05-05T11:15:58.262Z,61.24
2023-05-05T11:16:59.216Z,61.54
2023-05-05T11:17:58.245Z,62.16
2023-05-05T11:18:58.206Z,62.61
2023-05-05T11:19:58.154Z,62.11
2023-05-05T11:20:58.164Z,60.78
2023-05-05T11:21:58.123Z,59.02
2023-05-05T11:22:59.066Z,57.22
2023-05-05T11:23:58.098Z,56.01
2023-05-05T11:24:58.080Z,55.85
2023-05-05T11:25:58.121Z,56.52
2023-05-05T11:26:58.062Z,57.58
2023-05-05T11:27:58.092Z,58.66
2023-05-05T11:28:59.013Z,59.64
2023-05-05T11:29:58.264Z,60.43
2023-05-05T11:30:58.388Z,60.84
2023-05-05T11:31:58.023Z,60.91
2023-05-05T11:32:58.053Z,60.53
2023-05-05T11:33:58.035Z,59.31
2023-05-05T11:34:58.954Z,57.42
2023-05-05T11:35:57.949Z,55.44
2023-05-05T11:36:58.099Z,53.80
2023-05-05T11:37:57.955Z,52.70
2023-05-05T11:38:57.946Z,52.11
2023-05-05T11:39:58.886Z,51.82
2023-05-05T11:40:57.890Z,51.73
2023-05-05T11:41:57.922Z,51.76
2023-05-05T11:42:57.993Z,51.85
2023-05-05T11:43:57.936Z,51.92
2023-05-05T11:44:58.785Z,52.01
2023-05-05T11:45:57.930Z,52.22
2023-05-05T11:46:59.540Z,52.51
2023-05-05T11:47:57.888Z,52.86
2023-05-05T11:48:57.846Z,53.21
2023-05-05T11:49:58.757Z,53.38
2023-05-05T11:50:57.775Z,53.48
2023-05-05T11:51:57.826Z,53.59
2023-05-05T11:52:57.770Z,53.65
2023-05-05T11:53:59.124Z,53.67
2023-05-05T11:54:57.774Z,53.88
2023-05-05T11:55:58.657Z,54.27
2023-05-05T11:56:57.750Z,54.63
2023-05-05T11:57:57.823Z,55.03
2023-05-05T11:58:57.720Z,55.53
2023-05-05T11:59:57.711Z,55.83
2023-05-05T12:00:58.625Z,55.54
2023-05-05T12:01:57.708Z,54.55
2023-05-05T12:02:57.731Z,53.11
2023-05-05T12:03:57.883Z,51.56
2023-05-05T12:04:57.702Z,50.14
2023-05-05T12:05:57.672Z,48.89
2023-05-05T12:06:58.567Z,47.84
2023-05-05T12:07:57.637Z,47.47
2023-05-05T12:08:57.596Z,48.34
2023-05-05T12:09:57.607Z,50.23
2023-05-05T12:10:57.571Z,52.49
2023-05-05T12:11:58.609Z,54.62
2023-05-05T12:12:57.734Z,56.38
2023-05-05T12:13:57.635Z,57.81
2023-05-05T12:14:57.547Z,58.99
2023-05-05T12:15:57.532Z,59.89
2023-05-05T12:16:58.193Z,60.54
2023-05-05T12:18:00.119Z,61.00
2023-05-05T12:18:57.504Z,61.25
2023-05-05T12:19:57.488Z,61.46
2023-05-05T12:20:57.500Z,61.75
2023-05-05T12:21:57.481Z,62.12
2023-05-05T12:22:58.165Z,62.55
2023-05-05T12:23:58.394Z,63.05
2023-05-05T12:24:57.417Z,63.60
2023-05-05T12:25:57.402Z,64.20
2023-05-05T12:26:57.385Z,64.80
2023-05-05T12:27:57.421Z,65.27
2023-05-05T12:28:58.317Z,65.55
2023-05-05T12:29:57.396Z,65.73
2023-05-05T12:30:57.463Z,65.91
2023-05-05T12:31:57.408Z,66.21
2023-05-05T12:32:57.351Z,66.61
2023-05-05T12:33:57.361Z,67.07
2023-05-05T12:34:58.304Z,67.63
2023-05-05T12:35:57.321Z,68.23
2023-05-05T12:36:57.294Z,68.79
2023-05-05T12:37:57.361Z,69.24
2023-05-05T12:38:57.309Z,69.63
2023-05-05T12:39:57.278Z,69.98
2023-05-05T12:40:58.255Z,70.27
2023-05-05T12:41:57.279Z,70.47
2023-05-05T12:42:57.284Z,70.59
2023-05-05T12:43:57.204Z,70.65
2023-05-05T12:44:57.244Z,70.66
2023-05-05T12:45:58.178Z,70.62
2023-05-05T12:46:57.197Z,70.52
2023-05-05T12:47:57.285Z,70.33
2023-05-05T12:48:57.194Z,70.02
2023-05-05T12:49:57.196Z,69.63
2023-05-05T12:50:58.126Z,69.25
2023-05-05T12:51:57.173Z,68.97
2023-05-05T12:52:57.225Z,68.77
2023-05-05T12:53:57.204Z,68.71